Time;durP1;ratioP1;P1;durP2;ratioP2;P2;SDS_P1;SDS_P2;PMS_P1;PMS_P2;Temp;Humidity;BMP_temperature;BMP_pressure;BME280_temperature;BME280_humidity;BME280_pressure;Samples;Min_cycle;Max_cycle;Signal;HPM_P1;HPM_P2
2021/04/27 00:02:03;;;;;;;10.70;3.75;;;;;;;;;;5105663;28;20082;-68
2021/04/27 00:04:29;;;;;;;7.63;3.42;;;;;;;;;;5099638;28;20451;-73
2021/04/27 00:06:55;;;;;;;7.40;3.45;;;;;;;;;;5099103;28;20028;-72
2021/04/27 00:09:21;;;;;;;9.15;3.33;;;;;;;;;;5107575;28;20032;-69
2021/04/27 00:11:47;;;;;;;8.07;3.30;;;;;;;;;;5102245;28;20026;-76
2021/04/27 00:14:13;;;;;;;11.57;3.13;;;;;;;;;;5102173;28;20499;-74
2021/04/27 00:16:39;;;;;;;10.40;4.38;;;;;;;;;;5103055;28;20016;-73
2021/04/27 00:19:05;;;;;;;6.47;3.55;;;;;;;;;;5099419;28;20107;-76
2021/04/27 00:21:32;;;;;;;8.18;3.97;;;;;;;;;;5107778;28;20545;-75
2021/04/27 00:23:58;;;;;;;6.97;3.15;;;;;;;;;;5103262;28;20106;-76
2021/04/27 00:26:24;;;;;;;7.32;3.90;;;;;;;;;;5100071;28;20111;-76
2021/04/27 00:28:50;;;;;;;7.00;4.03;;;;;;;;;;5110068;28;20031;-72
2021/04/27 00:31:16;;;;;;;9.82;3.55;;;;;;;;;;5097472;28;20023;-71
2021/04/27 00:33:42;;;;;;;8.15;3.38;;;;;;;;;;5103219;28;20059;-70
2021/04/27 00:36:08;;;;;;;7.53;3.78;;;;;;;;;;5101049;28;20392;-72
2021/04/27 00:38:34;;;;;;;7.85;3.65;;;;;;;;;;5092366;28;20048;-72
2021/04/27 00:41:01;;;;;;;7.82;3.75;;;;;;;;;;5109933;28;20042;-72
2021/04/27 00:43:27;;;;;;;9.00;3.78;;;;;;;;;;5097416;28;20032;-71
2021/04/27 00:45:53;;;;;;;9.75;3.55;;;;;;;;;;5093043;28;20029;-76
2021/04/27 00:48:19;;;;;;;8.13;3.75;;;;;;;;;;5091597;28;20036;-71
2021/04/27 00:50:45;;;;;;;11.77;3.85;;;;;;;;;;5108002;28;20461;-71
2021/04/27 00:53:11;;;;;;;10.23;3.70;;;;;;;;;;5108664;28;20060;-74
2021/04/27 00:55:37;;;;;;;7.28;3.78;;;;;;;;;;5099566;28;20016;-76
2021/04/27 00:58:04;;;;;;;6.13;3.33;;;;;;;;;;5096610;28;20061;-73
2021/04/27 01:00:40;;;;;;;7.03;3.80;;;;;;;;;;5098873;28;20024;-73
2021/04/27 01:03:07;;;;;;;7.75;4.00;;;;;;;;;;5096044;28;20049;-74
2021/04/27 01:05:35;;;;;;;8.63;3.83;;;;;;;;;;5107077;28;20024;-71
2021/04/27 01:08:19;;;;;;;9.68;4.20;;;;;;;;;;5092405;28;20112;-71
2021/04/27 01:11:04;;;;;;;8.00;3.72;;;;;;;;;;5105423;28;20390;-75
2021/04/27 01:13:38;;;;;;;6.85;3.88;;;;;;;;;;5096306;28;20062;-72
2021/04/27 01:16:07;;;;;;;8.38;3.80;;;;;;;;;;5102457;28;20476;-68
2021/04/27 01:18:33;;;;;;;7.55;3.88;;;;;;;;;;5101035;28;20062;-71
2021/04/27 01:21:01;;;;;;;9.25;3.97;;;;;;;;;;5109300;28;20019;-73
2021/04/27 01:23:45;;;;;;;8.52;4.30;;;;;;;;;;5092182;28;20024;-69
2021/04/27 01:26:14;;;;;;;9.60;4.15;;;;;;;;;;5103933;28;20141;-69
2021/04/27 01:28:40;;;;;;;8.63;4.00;;;;;;;;;;5096766;28;20036;-73
2021/04/27 01:31:07;;;;;;;9.30;4.47;;;;;;;;;;5109393;28;20375;-72
2021/04/27 01:33:33;;;;;;;8.30;4.20;;;;;;;;;;5092622;28;20024;-76
2021/04/27 01:36:01;;;;;;;7.55;4.05;;;;;;;;;;5102058;28;20099;-72
2021/04/27 01:38:27;;;;;;;8.32;4.13;;;;;;;;;;5084505;28;20475;-69
2021/04/27 01:40:54;;;;;;;8.40;3.80;;;;;;;;;;5096564;28;20132;-77
2021/04/27 01:43:20;;;;;;;9.20;3.70;;;;;;;;;;5109362;28;20083;-76
2021/04/27 01:45:48;;;;;;;9.27;3.92;;;;;;;;;;5100270;28;20043;-76
2021/04/27 01:48:14;;;;;;;8.93;4.15;;;;;;;;;;5098478;28;20705;-71
2021/04/27 01:50:42;;;;;;;9.40;4.13;;;;;;;;;;5104618;28;20143;-73
2021/04/27 01:53:09;;;;;;;6.05;3.45;;;;;;;;;;5108734;28;20027;-70
2021/04/27 01:55:35;;;;;;;7.55;3.97;;;;;;;;;;5098084;28;20023;-71
2021/04/27 01:58:01;;;;;;;6.88;4.10;;;;;;;;;;5104932;28;20030;-73
2021/04/27 02:00:27;;;;;;;7.10;3.97;;;;;;;;;;5097962;28;20031;-76
2021/04/27 02:02:53;;;;;;;7.47;4.22;;;;;;;;;;5107122;28;20019;-69
2021/04/27 02:05:19;;;;;;;7.43;3.83;;;;;;;;;;5095526;28;20020;-71
2021/04/27 02:07:46;;;;;;;7.05;4.30;;;;;;;;;;5103610;28;20039;-73
2021/04/27 02:10:13;;;;;;;8.95;4.15;;;;;;;;;;5090862;28;20581;-74
2021/04/27 02:12:41;;;;;;;7.40;4.43;;;;;;;;;;5106993;28;20034;-69
2021/04/27 02:15:09;;;;;;;8.02;4.40;;;;;;;;;;5092905;28;20016;-74
2021/04/27 02:17:41;;;;;;;7.78;4.22;;;;;;;;;;5098098;28;20032;-76
2021/04/27 02:20:08;;;;;;;7.47;4.00;;;;;;;;;;5103086;28;20023;-70
2021/04/27 02:22:34;;;;;;;8.23;4.53;;;;;;;;;;5095173;28;20051;-76
2021/04/27 02:25:00;;;;;;;8.77;4.65;;;;;;;;;;5106944;28;20107;-68
2021/04/27 02:27:29;;;;;;;10.65;4.05;;;;;;;;;;5096191;28;20035;-73
2021/04/27 02:29:56;;;;;;;8.13;4.20;;;;;;;;;;5102482;28;20422;-70
2021/04/27 02:32:22;;;;;;;7.53;3.85;;;;;;;;;;5090619;28;20012;-76
2021/04/27 02:34:48;;;;;;;7.72;3.85;;;;;;;;;;5108109;28;20049;-72
2021/04/27 02:37:16;;;;;;;11.32;4.40;;;;;;;;;;5093969;28;20118;-77
2021/04/27 02:39:42;;;;;;;7.05;3.83;;;;;;;;;;5096737;28;20030;-70
2021/04/27 02:42:08;;;;;;;9.25;3.95;;;;;;;;;;5097591;28;20073;-75
2021/04/27 02:44:35;;;;;;;9.32;4.35;;;;;;;;;;5096184;28;20467;-72
2021/04/27 02:47:01;;;;;;;8.73;4.15;;;;;;;;;;5094883;28;20043;-70
2021/04/27 02:49:27;;;;;;;7.80;4.10;;;;;;;;;;5096297;28;20150;-77
2021/04/27 02:51:53;;;;;;;10.35;4.30;;;;;;;;;;5107139;28;20023;-69
2021/04/27 02:54:19;;;;;;;7.85;4.28;;;;;;;;;;5097512;28;20020;-76
2021/04/27 02:56:45;;;;;;;8.77;4.32;;;;;;;;;;5094173;28;20026;-74
2021/04/27 02:59:11;;;;;;;10.32;4.75;;;;;;;;;;5097500;28;20032;-69
2021/04/27 03:01:37;;;;;;;11.52;4.80;;;;;;;;;;5104677;28;20054;-77
2021/04/27 03:04:04;;;;;;;8.20;4.45;;;;;;;;;;5090981;28;20024;-73
2021/04/27 03:06:30;;;;;;;8.20;4.30;;;;;;;;;;5104986;28;20023;-72
2021/04/27 03:08:56;;;;;;;9.55;3.97;;;;;;;;;;5092256;28;20050;-74
2021/04/27 03:11:22;;;;;;;9.23;3.97;;;;;;;;;;5093930;28;20458;-75
2021/04/27 03:13:48;;;;;;;6.70;3.67;;;;;;;;;;5103639;28;20028;-71
2021/04/27 03:16:14;;;;;;;8.82;3.30;;;;;;;;;;5115262;28;20034;-69
2021/04/27 03:18:40;;;;;;;8.00;3.88;;;;;;;;;;5097442;28;20486;-77
2021/04/27 03:21:06;;;;;;;8.18;3.65;;;;;;;;;;5111302;28;20045;-72
2021/04/27 03:23:32;;;;;;;7.50;3.53;;;;;;;;;;5098811;28;20031;-74
2021/04/27 03:25:59;;;;;;;9.82;4.13;;;;;;;;;;5103507;28;20528;-75
2021/04/27 03:28:25;;;;;;;9.55;3.60;;;;;;;;;;5105600;28;20046;-72
2021/04/27 03:30:51;;;;;;;8.25;3.70;;;;;;;;;;5097161;28;20509;-72
2021/04/27 03:33:17;;;;;;;6.25;2.90;;;;;;;;;;5108747;28;20403;-70
2021/04/27 03:35:44;;;;;;;8.18;3.70;;;;;;;;;;5101657;28;20046;-72
2021/04/27 03:38:11;;;;;;;8.68;3.33;;;;;;;;;;5096472;28;20028;-75
2021/04/27 03:40:37;;;;;;;6.72;3.67;;;;;;;;;;5100985;28;20028;-68
2021/04/27 03:43:03;;;;;;;8.05;3.22;;;;;;;;;;5110380;28;20047;-77
2021/04/27 03:45:36;;;;;;;5.97;3.15;;;;;;;;;;5092410;28;20382;-70
2021/04/27 03:48:06;;;;;;;7.97;3.47;;;;;;;;;;5098899;28;20119;-69
2021/04/27 03:50:32;;;;;;;7.15;3.53;;;;;;;;;;5093694;28;20020;-75
2021/04/27 03:52:58;;;;;;;9.32;3.03;;;;;;;;;;5099972;28;20074;-69
2021/04/27 03:55:25;;;;;;;7.15;3.63;;;;;;;;;;5109558;28;20485;-68
2021/04/27 03:57:51;;;;;;;7.50;3.50;;;;;;;;;;5099215;28;20051;-70
2021/04/27 04:00:17;;;;;;;7.80;3.80;;;;;;;;;;5100878;28;20027;-71
2021/04/27 04:02:43;;;;;;;6.70;3.13;;;;;;;;;;5093327;28;20115;-73
2021/04/27 04:05:10;;;;;;;7.00;3.28;;;;;;;;;;5109366;28;20542;-69
2021/04/27 04:07:36;;;;;;;7.57;3.13;;;;;;;;;;5100230;28;20182;-71
2021/04/27 04:10:02;;;;;;;6.80;3.42;;;;;;;;;;5101543;28;20016;-69
2021/04/27 04:12:28;;;;;;;6.53;3.55;;;;;;;;;;5096906;28;20028;-75
2021/04/27 04:14:54;;;;;;;6.85;3.00;;;;;;;;;;5110661;28;20095;-72
2021/04/27 04:17:20;;;;;;;6.55;3.28;;;;;;;;;;5098185;28;20038;-75
2021/04/27 04:19:47;;;;;;;9.32;3.05;;;;;;;;;;5105008;28;20141;-73
2021/04/27 04:22:14;;;;;;;6.30;3.20;;;;;;;;;;5100669;28;20023;-70
2021/04/27 04:24:40;;;;;;;6.70;3.00;;;;;;;;;;5109096;28;20027;-75
2021/04/27 04:27:06;;;;;;;6.15;3.05;;;;;;;;;;5097094;28;20056;-73
2021/04/27 04:29:32;;;;;;;7.05;3.00;;;;;;;;;;5108050;28;20024;-68
2021/04/27 04:31:58;;;;;;;7.18;3.10;;;;;;;;;;5102647;28;20028;-76
2021/04/27 04:34:24;;;;;;;8.43;3.58;;;;;;;;;;5112910;28;20457;-70
2021/04/27 04:36:50;;;;;;;8.30;3.45;;;;;;;;;;5099657;28;20404;-71
2021/04/27 04:39:17;;;;;;;7.32;3.00;;;;;;;;;;5101109;28;20030;-74
2021/04/27 04:41:43;;;;;;;7.50;3.35;;;;;;;;;;5105996;28;20495;-70
2021/04/27 04:44:10;;;;;;;6.60;3.15;;;;;;;;;;5091632;28;20063;-71
2021/04/27 04:46:36;;;;;;;7.43;3.35;;;;;;;;;;5099296;28;20705;-75
2021/04/27 04:49:02;;;;;;;11.10;3.60;;;;;;;;;;5110117;28;20490;-74
2021/04/27 04:51:28;;;;;;;9.45;3.47;;;;;;;;;;5109375;28;20031;-73
2021/04/27 04:53:54;;;;;;;10.02;4.05;;;;;;;;;;5110753;28;20028;-71
2021/04/27 04:56:21;;;;;;;9.07;3.60;;;;;;;;;;5104422;28;20023;-75
2021/04/27 04:58:47;;;;;;;9.52;3.92;;;;;;;;;;5099631;28;20039;-75
2021/04/27 05:01:13;;;;;;;7.03;3.47;;;;;;;;;;5100956;28;20027;-72
2021/04/27 05:03:40;;;;;;;8.98;3.20;;;;;;;;;;5104808;28;20077;-68
2021/04/27 05:06:11;;;;;;;6.60;3.00;;;;;;;;;;5103233;28;20051;-68
2021/04/27 05:08:43;;;;;;;7.03;3.80;;;;;;;;;;5097404;28;20467;-74
2021/04/27 05:11:09;;;;;;;7.47;3.03;;;;;;;;;;5098668;28;20024;-73
2021/04/27 05:13:35;;;;;;;7.22;3.50;;;;;;;;;;5098780;28;20072;-77
2021/04/27 05:16:02;;;;;;;6.45;3.58;;;;;;;;;;5102492;28;20108;-76
2021/04/27 05:18:28;;;;;;;7.85;3.17;;;;;;;;;;5104946;28;20020;-69
2021/04/27 05:20:54;;;;;;;8.63;3.60;;;;;;;;;;5094071;28;20123;-69
2021/04/27 05:23:22;;;;;;;5.97;3.05;;;;;;;;;;5105399;28;20031;-75
2021/04/27 05:25:48;;;;;;;9.60;3.55;;;;;;;;;;5104211;28;20107;-77
2021/04/27 05:28:15;;;;;;;6.45;3.33;;;;;;;;;;5104165;28;20070;-74
2021/04/27 05:30:41;;;;;;;7.00;3.28;;;;;;;;;;5095003;28;20463;-73
2021/04/27 05:33:07;;;;;;;7.10;3.67;;;;;;;;;;5096616;28;20024;-74
2021/04/27 05:35:33;;;;;;;6.63;3.10;;;;;;;;;;5104991;28;20391;-75
2021/04/27 05:37:59;;;;;;;7.40;3.53;;;;;;;;;;5090949;28;20082;-76
2021/04/27 05:40:26;;;;;;;11.77;3.85;;;;;;;;;;5093251;28;20016;-76
2021/04/27 05:42:52;;;;;;;9.95;3.15;;;;;;;;;;5108506;28;20044;-72
2021/04/27 05:45:18;;;;;;;7.22;3.45;;;;;;;;;;5095956;28;20379;-77
2021/04/27 05:47:44;;;;;;;12.45;3.10;;;;;;;;;;5102971;28;20028;-77
2021/04/27 05:50:11;;;;;;;10.55;3.95;;;;;;;;;;5103409;28;20102;-76
2021/04/27 05:52:37;;;;;;;6.78;3.40;;;;;;;;;;5105307;28;20032;-72
2021/04/27 05:55:03;;;;;;;12.40;3.90;;;;;;;;;;5105661;28;20104;-73
2021/04/27 05:57:30;;;;;;;13.63;4.43;;;;;;;;;;5089577;28;20024;-73
2021/04/27 05:59:56;;;;;;;19.17;4.40;;;;;;;;;;5087586;28;20020;-72
2021/04/27 06:02:22;;;;;;;9.32;3.83;;;;;;;;;;5083060;28;20027;-73
2021/04/27 06:04:48;;;;;;;9.30;4.25;;;;;;;;;;5100728;28;20023;-74
2021/04/27 06:07:14;;;;;;;15.43;3.85;;;;;;;;;;5103193;28;20099;-72
2021/04/27 06:09:40;;;;;;;14.35;4.57;;;;;;;;;;5095063;28;20028;-75
2021/04/27 06:12:06;;;;;;;14.30;3.67;;;;;;;;;;5088346;28;20024;-84
2021/04/27 06:14:32;;;;;;;10.32;4.30;;;;;;;;;;5107541;28;20575;-74
2021/04/27 06:16:59;;;;;;;11.43;3.63;;;;;;;;;;5106870;28;20019;-74
2021/04/27 06:19:25;;;;;;;8.35;3.83;;;;;;;;;;5088032;28;20021;-73
2021/04/27 06:21:51;;;;;;;7.95;3.67;;;;;;;;;;5098810;28;20019;-76
2021/04/27 06:24:17;;;;;;;10.30;3.42;;;;;;;;;;5093186;28;20165;-77
2021/04/27 06:26:44;;;;;;;7.00;3.45;;;;;;;;;;5106037;28;20020;-80
2021/04/27 06:29:10;;;;;;;7.80;3.78;;;;;;;;;;5094069;28;20364;-73
2021/04/27 06:31:36;;;;;;;10.50;3.65;;;;;;;;;;5110011;27;20066;-81
2021/04/27 06:34:03;;;;;;;10.45;3.67;;;;;;;;;;5086117;28;20060;-77
2021/04/27 06:36:30;;;;;;;8.80;3.40;;;;;;;;;;5122658;27;20031;-74
2021/04/27 06:38:56;;;;;;;7.47;3.53;;;;;;;;;;5095863;28;20020;-83
2021/04/27 06:41:22;;;;;;;14.38;4.13;;;;;;;;;;5095082;28;20043;-71
2021/04/27 06:43:48;;;;;;;8.68;3.42;;;;;;;;;;5096679;28;20096;-71
2021/04/27 06:46:15;;;;;;;9.27;3.40;;;;;;;;;;5102923;28;20020;-74
2021/04/27 06:48:41;;;;;;;8.68;3.90;;;;;;;;;;5093503;28;20026;-72
2021/04/27 06:51:08;;;;;;;7.88;3.28;;;;;;;;;;5088368;28;21665;-71
2021/04/27 06:53:34;;;;;;;6.28;3.20;;;;;;;;;;5087762;28;20027;-72
2021/04/27 06:56:00;;;;;;;8.73;3.97;;;;;;;;;;5077364;28;20044;-70
2021/04/27 06:58:27;;;;;;;7.68;3.70;;;;;;;;;;5070239;28;20018;-73
2021/04/27 07:00:54;;;;;;;7.65;3.85;;;;;;;;;;5078202;28;20032;-73
2021/04/27 07:03:20;;;;;;;9.48;3.20;;;;;;;;;;5089316;28;20367;-75
2021/04/27 07:05:46;;;;;;;6.30;2.90;;;;;;;;;;5089379;28;20031;-73
2021/04/27 07:08:12;;;;;;;7.53;3.10;;;;;;;;;;5090001;28;20035;-73
2021/04/27 07:10:38;;;;;;;4.95;2.63;;;;;;;;;;5089766;28;20055;-72
2021/04/27 07:13:05;;;;;;;5.47;2.60;;;;;;;;;;5091279;28;20020;-77
2021/04/27 07:15:32;;;;;;;6.45;2.70;;;;;;;;;;5088836;28;20382;-81
2021/04/27 07:17:58;;;;;;;5.38;2.90;;;;;;;;;;5087655;28;20072;-81
2021/04/27 07:20:24;;;;;;;6.40;2.47;;;;;;;;;;5090318;28;20028;-75
2021/04/27 07:22:50;;;;;;;8.82;2.97;;;;;;;;;;5088766;28;20622;-75
2021/04/27 07:25:16;;;;;;;5.47;2.50;;;;;;;;;;5090562;28;20031;-76
2021/04/27 07:27:44;;;;;;;7.65;3.03;;;;;;;;;;5088926;28;20612;-79
2021/04/27 07:30:11;;;;;;;5.78;2.65;;;;;;;;;;5088502;28;20089;-79
2021/04/27 07:32:37;;;;;;;7.38;2.88;;;;;;;;;;5090312;28;20034;-74
2021/04/27 07:35:04;;;;;;;7.03;3.10;;;;;;;;;;5090124;28;20483;-74
2021/04/27 07:37:30;;;;;;;6.20;2.53;;;;;;;;;;5088923;28;20012;-76
2021/04/27 07:39:56;;;;;;;6.03;2.42;;;;;;;;;;5088035;28;20020;-76
2021/04/27 07:42:23;;;;;;;6.88;2.72;;;;;;;;;;5088433;28;20048;-77
2021/04/27 07:44:49;;;;;;;6.22;2.60;;;;;;;;;;5090059;28;20016;-78
2021/04/27 07:47:15;;;;;;;7.75;3.15;;;;;;;;;;5088724;28;20032;-79
2021/04/27 07:49:41;;;;;;;6.35;2.60;;;;;;;;;;5088887;28;20119;-81
2021/04/27 07:52:07;;;;;;;6.20;2.75;;;;;;;;;;5091495;28;20032;-85
2021/04/27 07:54:33;;;;;;;6.43;3.05;;;;;;;;;;5091388;28;20078;-89
2021/04/27 07:56:59;;;;;;;7.10;2.28;;;;;;;;;;5091497;28;20028;-78
2021/04/27 07:59:25;;;;;;;5.40;2.92;;;;;;;;;;5093384;28;20115;-78
2021/04/27 08:01:52;;;;;;;6.22;2.90;;;;;;;;;;5093021;28;20032;-77
2021/04/27 08:04:19;;;;;;;9.70;3.05;;;;;;;;;;5083792;28;20024;-73
2021/04/27 08:06:45;;;;;;;5.28;3.00;;;;;;;;;;5108726;28;20483;-78
2021/04/27 08:09:11;;;;;;;6.47;3.20;;;;;;;;;;5100581;28;20032;-75
2021/04/27 08:11:39;;;;;;;6.75;2.67;;;;;;;;;;5099902;28;20379;-75
2021/04/27 08:14:05;;;;;;;6.85;2.80;;;;;;;;;;5105193;27;20136;-75
2021/04/27 08:16:31;;;;;;;5.57;2.72;;;;;;;;;;5094810;28;20020;-76
2021/04/27 08:18:58;;;;;;;5.35;2.33;;;;;;;;;;5105583;28;20048;-72
2021/04/27 08:21:24;;;;;;;10.68;3.53;;;;;;;;;;5094213;28;20031;-75
2021/04/27 08:23:50;;;;;;;6.78;2.65;;;;;;;;;;5107593;28;20474;-74
2021/04/27 08:26:16;;;;;;;8.30;2.45;;;;;;;;;;5096485;28;20028;-75
2021/04/27 08:28:42;;;;;;;5.53;2.60;;;;;;;;;;5107415;28;20020;-74
2021/04/27 08:31:08;;;;;;;8.00;2.72;;;;;;;;;;5099654;28;20563;-75
2021/04/27 08:33:35;;;;;;;8.43;2.40;;;;;;;;;;5102843;28;20034;-74
2021/04/27 08:36:01;;;;;;;7.07;3.08;;;;;;;;;;5109042;28;20019;-71
2021/04/27 08:38:27;;;;;;;5.28;2.58;;;;;;;;;;5096711;28;20625;-75
2021/04/27 08:40:54;;;;;;;5.57;2.47;;;;;;;;;;5108869;28;20058;-72
2021/04/27 08:43:20;;;;;;;6.57;2.50;;;;;;;;;;5098817;28;20125;-80
2021/04/27 08:45:47;;;;;;;9.23;2.42;;;;;;;;;;5081603;28;20052;-75
2021/04/27 08:48:14;;;;;;;8.30;3.15;;;;;;;;;;5095716;28;20096;-74
2021/04/27 08:50:41;;;;;;;7.25;2.97;;;;;;;;;;5090609;28;20456;-74
2021/04/27 08:53:08;;;;;;;6.80;2.47;;;;;;;;;;5103736;28;20035;-77
2021/04/27 08:55:34;;;;;;;9.15;3.08;;;;;;;;;;5094659;28;20016;-78
2021/04/27 08:58:00;;;;;;;6.35;2.55;;;;;;;;;;5093763;28;20024;-76
2021/04/27 09:00:27;;;;;;;5.43;2.42;;;;;;;;;;5107943;28;20049;-77
2021/04/27 09:03:01;;;;;;;6.53;2.85;;;;;;;;;;5097620;28;20367;-73
2021/04/27 09:05:28;;;;;;;14.93;2.70;;;;;;;;;;5101397;28;20031;-76
2021/04/27 09:07:55;;;;;;;8.00;3.10;;;;;;;;;;5100556;28;20032;-71
2021/04/27 09:10:26;;;;;;;5.43;2.15;;;;;;;;;;5122975;27;20371;-72
2021/04/27 09:13:09;;;;;;;8.73;2.42;;;;;;;;;;5096538;28;20027;-72
2021/04/27 09:15:38;;;;;;;8.63;3.35;;;;;;;;;;5098942;28;20530;-72
2021/04/27 09:18:23;;;;;;;4.43;2.20;;;;;;;;;;5107137;28;20031;-73
2021/04/27 09:20:50;;;;;;;6.85;2.58;;;;;;;;;;5095706;28;20378;-68
2021/04/27 09:23:17;;;;;;;17.20;2.83;;;;;;;;;;5090069;28;20028;-68
2021/04/27 09:25:44;;;;;;;6.53;2.40;;;;;;;;;;5097466;28;20039;-76
2021/04/27 09:28:10;;;;;;;5.47;2.33;;;;;;;;;;5093222;28;20384;-76
2021/04/27 09:30:40;;;;;;;7.97;2.53;;;;;;;;;;5077404;28;20035;-81
2021/04/27 09:33:10;;;;;;;8.25;2.55;;;;;;;;;;5102701;28;20469;-68
2021/04/27 09:35:46;;;;;;;8.68;2.42;;;;;;;;;;5094078;28;20167;-71
2021/04/27 09:38:17;;;;;;;7.50;2.58;;;;;;;;;;5097910;28;20028;-69
2021/04/27 09:40:45;;;;;;;5.15;2.35;;;;;;;;;;5098461;28;20160;-75
2021/04/27 09:43:12;;;;;;;6.88;2.83;;;;;;;;;;5097168;28;20055;-75
2021/04/27 09:45:42;;;;;;;5.40;2.45;;;;;;;;;;5097569;28;20122;-71
2021/04/27 09:48:08;;;;;;;4.22;1.85;;;;;;;;;;5092055;28;20132;-75
2021/04/27 09:50:34;;;;;;;11.05;2.53;;;;;;;;;;5100194;28;20062;-70
2021/04/27 09:53:01;;;;;;;6.10;1.92;;;;;;;;;;5088137;28;20085;-71
2021/04/27 09:55:32;;;;;;;4.43;1.95;;;;;;;;;;5097429;28;20093;-71
2021/04/27 09:57:59;;;;;;;9.45;2.58;;;;;;;;;;5099752;28;20597;-73
2021/04/27 10:00:28;;;;;;;7.03;2.55;;;;;;;;;;5099398;28;20041;-73
2021/04/27 10:02:59;;;;;;;6.63;2.47;;;;;;;;;;5097565;28;20080;-70
2021/04/27 10:05:25;;;;;;;4.60;2.38;;;;;;;;;;5086635;28;20372;-74
2021/04/27 10:07:52;;;;;;;4.30;2.08;;;;;;;;;;5094593;28;20596;-75
2021/04/27 10:10:19;;;;;;;5.80;2.20;;;;;;;;;;5103435;28;20073;-76
2021/04/27 10:12:46;;;;;;;4.47;2.08;;;;;;;;;;5100992;28;20031;-70
2021/04/27 10:15:13;;;;;;;4.07;2.15;;;;;;;;;;5103350;28;20024;-74
2021/04/27 10:17:39;;;;;;;5.22;2.20;;;;;;;;;;5104643;28;20020;-74
2021/04/27 10:20:07;;;;;;;6.40;1.98;;;;;;;;;;5102526;28;20015;-74
2021/04/27 10:22:34;;;;;;;5.28;2.22;;;;;;;;;;5098082;28;20038;-71
2021/04/27 10:25:01;;;;;;;5.53;2.15;;;;;;;;;;5099276;28;20047;-69
2021/04/27 10:27:28;;;;;;;5.80;2.13;;;;;;;;;;5104667;28;20024;-73
2021/04/27 10:30:14;;;;;;;4.30;1.92;;;;;;;;;;5095045;28;20554;-74
2021/04/27 10:32:40;;;;;;;6.50;2.03;;;;;;;;;;5093538;28;20032;-78
2021/04/27 10:35:07;;;;;;;4.90;1.90;;;;;;;;;;5098592;28;20509;-76
2021/04/27 10:37:52;;;;;;;4.07;1.77;;;;;;;;;;5096529;28;20024;-77
2021/04/27 10:40:36;;;;;;;3.40;1.63;;;;;;;;;;5096350;28;20024;-77
2021/04/27 10:43:21;;;;;;;4.18;1.85;;;;;;;;;;5094030;28;20567;-77
2021/04/27 10:45:47;;;;;;;3.88;1.70;;;;;;;;;;5103483;28;20043;-80
2021/04/27 10:48:25;;;;;;;3.95;1.67;;;;;;;;;;5102135;28;20115;-73
2021/04/27 10:50:51;;;;;;;4.20;1.70;;;;;;;;;;5098764;28;20023;-77
2021/04/27 10:53:31;;;;;;;5.20;1.65;;;;;;;;;;5104008;28;20462;-72
2021/04/27 10:55:57;;;;;;;3.33;1.42;;;;;;;;;;5104350;28;20023;-72
2021/04/27 10:58:42;;;;;;;2.97;1.38;;;;;;;;;;5098949;28;20016;-73
2021/04/27 11:01:22;;;;;;;4.00;1.55;;;;;;;;;;5097010;28;20024;-73
2021/04/27 11:03:51;;;;;;;4.18;1.42;;;;;;;;;;5092290;28;20030;-72
2021/04/27 11:06:18;;;;;;;5.03;1.98;;;;;;;;;;5099829;28;20052;-71
2021/04/27 11:08:47;;;;;;;4.07;1.40;;;;;;;;;;5089589;28;20529;-73
2021/04/27 11:11:36;;;;;;;5.05;1.80;;;;;;;;;;5090617;28;20063;-71
2021/04/27 11:14:14;;;;;;;4.00;1.52;;;;;;;;;;5083157;28;20532;-70
2021/04/27 11:16:41;;;;;;;6.60;1.70;;;;;;;;;;5089183;28;20038;-71
2021/04/27 11:19:13;;;;;;;4.15;1.80;;;;;;;;;;5091476;28;20024;-71
2021/04/27 11:21:40;;;;;;;4.30;1.77;;;;;;;;;;5091126;28;20020;-71
2021/04/27 11:24:10;;;;;;;7.93;3.25;;;;;;;;;;5091266;28;20581;-73
2021/04/27 11:26:36;;;;;;;16.08;7.28;;;;;;;;;;5082338;28;20028;-74
2021/04/27 11:29:05;;;;;;;23.10;10.48;;;;;;;;;;5090359;28;20035;-76
2021/04/27 11:31:31;;;;;;;35.45;14.93;;;;;;;;;;5091758;28;20044;-70
2021/04/27 11:34:02;;;;;;;46.17;21.33;;;;;;;;;;5092925;28;20429;-70
2021/04/27 11:36:38;;;;;;;44.10;18.77;;;;;;;;;;5086223;28;20047;-71
2021/04/27 11:39:11;;;;;;;42.60;17.83;;;;;;;;;;5074343;28;20052;-69
2021/04/27 11:41:51;;;;;;;38.33;17.38;;;;;;;;;;5073338;28;20044;-69
2021/04/27 11:44:19;;;;;;;39.58;15.68;;;;;;;;;;5083618;28;20040;-70
2021/04/27 11:47:04;;;;;;;32.55;13.10;;;;;;;;;;5093787;28;20042;-69
2021/04/27 11:49:49;;;;;;;35.10;15.38;;;;;;;;;;5092089;28;20028;-69
2021/04/27 11:52:16;;;;;;;40.33;14.70;;;;;;;;;;5094583;28;20024;-68
2021/04/27 11:54:42;;;;;;;34.38;14.40;;;;;;;;;;5094988;28;20103;-69
2021/04/27 11:57:15;;;;;;;35.65;13.10;;;;;;;;;;5089751;28;20035;-68
2021/04/27 11:59:42;;;;;;;28.67;11.52;;;;;;;;;;5093606;28;20173;-70
2021/04/27 12:02:08;;;;;;;29.52;9.80;;;;;;;;;;5096190;28;20505;-70
2021/04/27 12:04:34;;;;;;;26.58;10.55;;;;;;;;;;5091715;28;20024;-70
2021/04/27 12:07:01;;;;;;;32.25;11.45;;;;;;;;;;5088482;28;20044;-69
2021/04/27 12:09:28;;;;;;;24.75;9.10;;;;;;;;;;5094261;28;20043;-73
2021/04/27 12:12:07;;;;;;;36.05;10.13;;;;;;;;;;5093165;28;20417;-72
2021/04/27 12:14:33;;;;;;;25.20;8.05;;;;;;;;;;5083993;28;20020;-71
2021/04/27 12:16:59;;;;;;;19.20;7.45;;;;;;;;;;5112703;28;20529;-73
2021/04/27 12:19:28;;;;;;;18.52;6.97;;;;;;;;;;5111537;28;20024;-71
2021/04/27 12:22:07;;;;;;;16.55;5.90;;;;;;;;;;5102856;28;20023;-71
2021/04/27 12:24:35;;;;;;;17.13;6.90;;;;;;;;;;5091600;28;20085;-75
2021/04/27 12:27:09;;;;;;;17.13;5.82;;;;;;;;;;5098787;27;20115;-74
2021/04/27 12:29:36;;;;;;;16.92;5.93;;;;;;;;;;5093959;28;20024;-74
2021/04/27 12:32:10;;;;;;;19.45;5.72;;;;;;;;;;5094018;28;20020;-77
2021/04/27 12:34:36;;;;;;;14.05;5.53;;;;;;;;;;5078765;28;20048;-76
2021/04/27 12:37:02;;;;;;;14.02;5.32;;;;;;;;;;5077083;28;20029;-77
2021/04/27 12:39:32;;;;;;;13.55;5.28;;;;;;;;;;5095976;28;20024;-73
2021/04/27 12:42:00;;;;;;;13.50;5.68;;;;;;;;;;5091490;28;20392;-77
2021/04/27 12:44:27;;;;;;;10.43;4.00;;;;;;;;;;5089429;28;20111;-73
2021/04/27 12:46:53;;;;;;;16.45;5.07;;;;;;;;;;5079592;28;20032;-74
2021/04/27 12:49:26;;;;;;;12.35;4.43;;;;;;;;;;5075453;28;20032;-77
2021/04/27 12:52:07;;;;;;;9.52;4.22;;;;;;;;;;5083900;28;20576;-77
2021/04/27 12:54:34;;;;;;;10.05;4.53;;;;;;;;;;5072011;28;20033;-80
2021/04/27 12:57:03;;;;;;;11.10;4.22;;;;;;;;;;5087623;28;20020;-76
2021/04/27 12:59:30;;;;;;;11.43;3.85;;;;;;;;;;5092057;28;20081;-74
2021/04/27 13:02:15;;;;;;;11.63;4.15;;;;;;;;;;5083443;28;20024;-70
2021/04/27 13:04:45;;;;;;;9.23;3.40;;;;;;;;;;5090496;27;20487;-73
2021/04/27 13:07:22;;;;;;;9.98;3.80;;;;;;;;;;5081250;28;20040;-72
2021/04/27 13:09:48;;;;;;;8.50;3.15;;;;;;;;;;5090625;28;20028;-73
2021/04/27 13:12:15;;;;;;;7.70;3.35;;;;;;;;;;5093008;28;20114;-79
2021/04/27 13:14:42;;;;;;;8.43;3.53;;;;;;;;;;5092916;28;20034;-72
2021/04/27 13:17:21;;;;;;;7.82;3.13;;;;;;;;;;5085855;28;20044;-71
2021/04/27 13:19:48;;;;;;;7.85;3.38;;;;;;;;;;5088264;28;20020;-74
2021/04/27 13:22:17;;;;;;;12.75;3.80;;;;;;;;;;5085727;28;20029;-68
2021/04/27 13:24:43;;;;;;;12.40;3.78;;;;;;;;;;5071972;28;20016;-69
2021/04/27 13:27:10;;;;;;;13.48;4.30;;;;;;;;;;5087154;28;20160;-74
2021/04/27 13:29:40;;;;;;;12.27;3.47;;;;;;;;;;5107722;28;20020;-71
2021/04/27 13:32:16;;;;;;;8.68;3.20;;;;;;;;;;5095201;28;20115;-72
2021/04/27 13:34:43;;;;;;;13.13;3.85;;;;;;;;;;5092167;28;20077;-68
2021/04/27 13:37:10;;;;;;;11.88;4.63;;;;;;;;;;5093802;28;20019;-73
2021/04/27 13:39:36;;;;;;;10.60;3.90;;;;;;;;;;5109587;28;20111;-72
2021/04/27 13:42:02;;;;;;;29.20;4.50;;;;;;;;;;5101146;28;20036;-73
2021/04/27 13:44:28;;;;;;;16.23;3.70;;;;;;;;;;5089535;28;20065;-72
2021/04/27 13:46:54;;;;;;;11.35;4.25;;;;;;;;;;5090378;28;20586;-71
2021/04/27 13:49:21;;;;;;;12.25;4.18;;;;;;;;;;5091532;28;20027;-72
2021/04/27 13:51:47;;;;;;;16.45;3.90;;;;;;;;;;5088033;28;20516;-72
2021/04/27 13:54:14;;;;;;;13.07;4.32;;;;;;;;;;5090229;28;20099;-72
2021/04/27 13:56:40;;;;;;;11.25;4.00;;;;;;;;;;5091958;28;20596;-71
2021/04/27 13:59:06;;;;;;;9.88;3.97;;;;;;;;;;5091857;28;20132;-72
2021/04/27 14:01:33;;;;;;;11.52;3.70;;;;;;;;;;5085871;28;20066;-72
2021/04/27 14:04:00;;;;;;;8.85;4.05;;;;;;;;;;5071760;28;20541;-72
2021/04/27 14:06:26;;;;;;;9.05;4.07;;;;;;;;;;5071544;28;20631;-71
2021/04/27 14:08:53;;;;;;;8.63;3.67;;;;;;;;;;5087197;28;20067;-71
2021/04/27 14:11:19;;;;;;;8.75;3.28;;;;;;;;;;5078766;28;20065;-72
2021/04/27 14:13:45;;;;;;;9.75;3.15;;;;;;;;;;5099423;28;20024;-72
2021/04/27 14:16:11;;;;;;;8.70;3.53;;;;;;;;;;5081333;28;20046;-72
2021/04/27 14:18:37;;;;;;;7.10;3.67;;;;;;;;;;5099629;28;20030;-72
2021/04/27 14:21:03;;;;;;;7.70;3.60;;;;;;;;;;5093908;28;20478;-71
2021/04/27 14:23:29;;;;;;;7.15;3.33;;;;;;;;;;5100499;28;20073;-72
2021/04/27 14:25:55;;;;;;;8.13;3.10;;;;;;;;;;5101829;28;20026;-71
2021/04/27 14:28:21;;;;;;;10.18;3.20;;;;;;;;;;5102944;28;20112;-71
2021/04/27 14:30:48;;;;;;;11.60;3.40;;;;;;;;;;5094433;28;20024;-71
2021/04/27 14:33:14;;;;;;;6.10;2.55;;;;;;;;;;5103160;28;20517;-73
2021/04/27 14:35:42;;;;;;;8.63;3.53;;;;;;;;;;5096025;28;20024;-71
2021/04/27 14:38:08;;;;;;;8.48;3.20;;;;;;;;;;5099885;28;20036;-72
2021/04/27 14:40:36;;;;;;;11.90;3.55;;;;;;;;;;5085621;28;20029;-72
2021/04/27 14:43:03;;;;;;;6.05;3.35;;;;;;;;;;5102642;28;20043;-72